Time;durP1;ratioP1;P1;durP2;ratioP2;P2;SDS_P1;SDS_P2;PMS_P1;PMS_P2;Temp;Humidity;BMP_temperature;BMP_pressure;BME280_temperature;BME280_humidity;BME280_pressure;Samples;Min_cycle;Max_cycle;Signal;HPM_P1;HPM_P2
2020/12/02 00:00:57;;;;;;;66.07;21.00;;;;;;;;;;5109624;28;20475;-69
2020/12/02 00:03:26;;;;;;;75.80;21.13;;;;;;;;;;5103879;28;20455;-69
2020/12/02 00:05:54;;;;;;;149.67;26.37;;;;;;;;;;5102034;28;20447;-69
2020/12/02 00:08:22;;;;;;;93.23;22.37;;;;;;;;;;5099850;28;20797;-69
2020/12/02 00:10:49;;;;;;;74.97;21.27;;;;;;;;;;5102872;28;21231;-69
2020/12/02 00:13:17;;;;;;;182.13;29.70;;;;;;;;;;5096805;28;20466;-69
2020/12/02 00:15:43;;;;;;;145.63;25.50;;;;;;;;;;5098710;28;20448;-69
2020/12/02 00:18:11;;;;;;;93.53;22.93;;;;;;;;;;5106317;28;20495;-69
2020/12/02 00:20:37;;;;;;;96.47;23.90;;;;;;;;;;5109353;28;20479;-69
2020/12/02 00:23:05;;;;;;;93.33;22.17;;;;;;;;;;5104307;28;20444;-69
2020/12/02 00:25:31;;;;;;;91.97;23.70;;;;;;;;;;5102022;28;20469;-69
2020/12/02 00:28:01;;;;;;;87.17;22.70;;;;;;;;;;5095695;28;20487;-69
2020/12/02 00:30:27;;;;;;;104.13;24.50;;;;;;;;;;5096136;28;20504;-69
2020/12/02 00:32:54;;;;;;;150.17;24.67;;;;;;;;;;5102564;28;21574;-69
2020/12/02 00:35:22;;;;;;;127.43;27.17;;;;;;;;;;5105304;28;20470;-69
2020/12/02 00:37:49;;;;;;;94.43;20.80;;;;;;;;;;5098937;28;20482;-68
2020/12/02 00:40:16;;;;;;;129.03;25.27;;;;;;;;;;5108904;28;20474;-69
2020/12/02 00:42:43;;;;;;;188.70;28.67;;;;;;;;;;5095537;28;20487;-69
2020/12/02 00:45:10;;;;;;;163.60;24.83;;;;;;;;;;5102528;28;20448;-68
2020/12/02 00:47:37;;;;;;;120.27;21.90;;;;;;;;;;5101202;28;20467;-69
2020/12/02 00:50:06;;;;;;;95.67;21.50;;;;;;;;;;5101746;28;20467;-69
2020/12/02 00:52:33;;;;;;;149.97;23.83;;;;;;;;;;5094259;28;20440;-69
2020/12/02 00:55:00;;;;;;;163.17;28.43;;;;;;;;;;5099415;28;20439;-69
2020/12/02 00:57:29;;;;;;;124.50;23.77;;;;;;;;;;5103922;28;21056;-69
2020/12/02 00:59:57;;;;;;;281.13;42.00;;;;;;;;;;5106694;28;20471;-69
2020/12/02 01:02:29;;;;;;;100.20;21.47;;;;;;;;;;5094969;28;20937;-69
2020/12/02 01:04:58;;;;;;;140.43;25.40;;;;;;;;;;5096022;28;20466;-68
2020/12/02 01:07:25;;;;;;;271.97;37.47;;;;;;;;;;5105748;28;20435;-69
2020/12/02 01:09:53;;;;;;;185.07;30.97;;;;;;;;;;5093421;28;20470;-69
2020/12/02 01:12:20;;;;;;;186.20;31.33;;;;;;;;;;5093970;28;20452;-69
2020/12/02 01:14:48;;;;;;;196.47;27.63;;;;;;;;;;5103691;28;20454;-69
2020/12/02 01:17:15;;;;;;;300.43;40.90;;;;;;;;;;5098636;28;20820;-69
2020/12/02 01:19:42;;;;;;;194.07;29.97;;;;;;;;;;5094531;28;21026;-69
2020/12/02 01:22:12;;;;;;;224.47;32.30;;;;;;;;;;5104380;28;20476;-69
2020/12/02 01:24:43;;;;;;;162.80;28.93;;;;;;;;;;5095069;28;20441;-69
2020/12/02 01:27:14;;;;;;;184.50;32.33;;;;;;;;;;5093479;28;20451;-69
2020/12/02 01:29:41;;;;;;;153.67;30.70;;;;;;;;;;5094410;28;20487;-69
2020/12/02 01:32:07;;;;;;;121.77;23.50;;;;;;;;;;5100680;28;20444;-69
2020/12/02 01:34:34;;;;;;;87.50;21.57;;;;;;;;;;5095140;28;20459;-69
2020/12/02 01:37:25;;;;;;;139.63;24.90;;;;;;;;;;5096561;28;20531;-68
2020/12/02 01:39:57;;;;;;;164.63;26.63;;;;;;;;;;5080336;28;20991;-69
2020/12/02 01:42:25;;;;;;;96.20;22.93;;;;;;;;;;5096946;28;20493;-69
2020/12/02 01:44:51;;;;;;;90.50;23.17;;;;;;;;;;5099475;28;20452;-69
2020/12/02 01:47:22;;;;;;;60.10;22.63;;;;;;;;;;5102100;28;20455;-69
2020/12/02 01:49:52;;;;;;;104.00;22.53;;;;;;;;;;5092213;28;20991;-69
2020/12/02 01:52:25;;;;;;;92.40;21.77;;;;;;;;;;5104876;28;20450;-69
2020/12/02 01:54:56;;;;;;;66.17;18.73;;;;;;;;;;5094173;28;20448;-68
2020/12/02 01:57:23;;;;;;;150.07;27.87;;;;;;;;;;5105975;28;20455;-68
2020/12/02 01:59:57;;;;;;;80.57;18.53;;;;;;;;;;5099927;28;20497;-68
2020/12/02 02:02:29;;;;;;;64.97;18.70;;;;;;;;;;5106716;28;20491;-68
2020/12/02 02:04:59;;;;;;;104.83;23.30;;;;;;;;;;5096363;28;20486;-69
2020/12/02 02:07:28;;;;;;;156.27;27.83;;;;;;;;;;5104228;28;20457;-67
2020/12/02 02:09:56;;;;;;;84.83;19.60;;;;;;;;;;5098747;28;20980;-67
2020/12/02 02:12:39;;;;;;;64.67;20.80;;;;;;;;;;5093369;28;20796;-68
2020/12/02 02:15:10;;;;;;;43.17;17.10;;;;;;;;;;5093684;28;20451;-68
2020/12/02 02:17:37;;;;;;;50.60;17.93;;;;;;;;;;5100305;28;20451;-69
2020/12/02 02:20:05;;;;;;;40.40;15.60;;;;;;;;;;5094097;28;20475;-69
2020/12/02 02:22:31;;;;;;;61.77;19.30;;;;;;;;;;5097539;28;20855;-69
2020/12/02 02:24:58;;;;;;;48.03;18.90;;;;;;;;;;5102023;28;20451;-69
2020/12/02 02:27:26;;;;;;;49.57;18.80;;;;;;;;;;5093971;28;20478;-69
2020/12/02 02:29:53;;;;;;;44.37;16.93;;;;;;;;;;5099502;28;20843;-69
2020/12/02 02:32:21;;;;;;;40.00;16.43;;;;;;;;;;5098647;28;21216;-69
2020/12/02 02:34:49;;;;;;;39.10;17.37;;;;;;;;;;5097449;28;20462;-69
2020/12/02 02:37:16;;;;;;;50.87;18.23;;;;;;;;;;5099218;28;20445;-69
2020/12/02 02:39:42;;;;;;;49.80;19.00;;;;;;;;;;5097390;28;20475;-69
2020/12/02 02:42:23;;;;;;;58.93;20.53;;;;;;;;;;5097439;28;20475;-69
2020/12/02 02:44:51;;;;;;;51.10;19.20;;;;;;;;;;5103806;28;20447;-69
2020/12/02 02:47:17;;;;;;;53.30;18.73;;;;;;;;;;5106191;28;20451;-68
2020/12/02 02:49:44;;;;;;;65.60;21.07;;;;;;;;;;5099255;28;20820;-69
2020/12/02 02:52:11;;;;;;;56.17;19.23;;;;;;;;;;5103802;28;20825;-69
2020/12/02 02:54:38;;;;;;;61.63;21.30;;;;;;;;;;5106126;28;20456;-69
2020/12/02 02:57:04;;;;;;;103.90;24.87;;;;;;;;;;5107972;28;20451;-69
2020/12/02 02:59:31;;;;;;;49.20;19.77;;;;;;;;;;5104676;28;20467;-68
2020/12/02 03:01:58;;;;;;;37.37;17.83;;;;;;;;;;5109449;28;20490;-69
2020/12/02 03:04:25;;;;;;;33.00;16.57;;;;;;;;;;5103838;28;21080;-68
2020/12/02 03:06:51;;;;;;;29.77;16.57;;;;;;;;;;5110452;28;20447;-68
2020/12/02 03:09:18;;;;;;;32.97;15.20;;;;;;;;;;5106927;28;20482;-69
2020/12/02 03:11:45;;;;;;;27.40;15.20;;;;;;;;;;5106750;28;20823;-69
2020/12/02 03:14:12;;;;;;;25.70;13.53;;;;;;;;;;5107053;28;20803;-69
2020/12/02 03:16:40;;;;;;;26.30;15.57;;;;;;;;;;5106322;28;20467;-69
2020/12/02 03:19:10;;;;;;;43.80;19.03;;;;;;;;;;5104171;28;20475;-69
2020/12/02 03:21:36;;;;;;;41.27;19.53;;;;;;;;;;5102133;28;20913;-69
2020/12/02 03:24:04;;;;;;;49.60;16.40;;;;;;;;;;5103606;28;20482;-69
2020/12/02 03:26:30;;;;;;;34.23;15.70;;;;;;;;;;5104220;28;20469;-68
2020/12/02 03:28:57;;;;;;;28.23;14.63;;;;;;;;;;5097848;28;20481;-68
2020/12/02 03:31:24;;;;;;;30.83;14.33;;;;;;;;;;5093644;28;20820;-68
2020/12/02 03:33:50;;;;;;;34.10;13.17;;;;;;;;;;5109875;28;20470;-69
2020/12/02 03:36:18;;;;;;;31.30;14.73;;;;;;;;;;5104618;28;20819;-69
2020/12/02 03:38:45;;;;;;;28.63;15.17;;;;;;;;;;5094435;28;20463;-69
2020/12/02 03:41:13;;;;;;;29.13;13.37;;;;;;;;;;5103826;28;20452;-69
2020/12/02 03:43:39;;;;;;;31.93;13.83;;;;;;;;;;5097999;28;20443;-69
2020/12/02 03:46:06;;;;;;;34.57;15.33;;;;;;;;;;5107713;28;20458;-68
2020/12/02 03:48:33;;;;;;;31.93;14.70;;;;;;;;;;5096357;28;20469;-69
2020/12/02 03:51:00;;;;;;;32.67;13.97;;;;;;;;;;5099941;28;20519;-69
2020/12/02 03:53:27;;;;;;;44.83;15.80;;;;;;;;;;5099617;28;20816;-68
2020/12/02 03:55:54;;;;;;;40.27;14.80;;;;;;;;;;5107261;28;20486;-68
2020/12/02 03:58:21;;;;;;;29.37;13.17;;;;;;;;;;5105536;28;20470;-68
2020/12/02 04:00:47;;;;;;;35.77;14.27;;;;;;;;;;5100029;28;20463;-68
2020/12/02 04:03:14;;;;;;;29.87;13.90;;;;;;;;;;5097833;28;20479;-68
2020/12/02 04:05:41;;;;;;;29.57;13.50;;;;;;;;;;5099273;28;20447;-68
2020/12/02 04:08:08;;;;;;;31.53;13.90;;;;;;;;;;5104884;28;20454;-68
2020/12/02 04:10:35;;;;;;;32.20;13.43;;;;;;;;;;5106416;28;20498;-68
2020/12/02 04:13:02;;;;;;;31.10;13.13;;;;;;;;;;5101015;28;20801;-68
2020/12/02 04:15:29;;;;;;;30.50;12.37;;;;;;;;;;5100444;28;20443;-68
2020/12/02 04:17:56;;;;;;;35.27;13.93;;;;;;;;;;5094415;28;20455;-68
2020/12/02 04:20:22;;;;;;;44.17;15.67;;;;;;;;;;5096599;28;20468;-68
2020/12/02 04:22:49;;;;;;;58.90;16.10;;;;;;;;;;5098859;28;20480;-68
2020/12/02 04:25:17;;;;;;;75.53;18.03;;;;;;;;;;5108323;28;20976;-68
2020/12/02 04:27:44;;;;;;;61.43;16.57;;;;;;;;;;5101517;28;20459;-68
2020/12/02 04:30:11;;;;;;;91.20;21.30;;;;;;;;;;5093150;28;20495;-68
2020/12/02 04:32:38;;;;;;;62.70;16.57;;;;;;;;;;5093803;28;20455;-68
2020/12/02 04:35:04;;;;;;;38.30;15.23;;;;;;;;;;5098340;28;20440;-68
2020/12/02 04:37:32;;;;;;;53.83;16.33;;;;;;;;;;5099247;28;20440;-68
2020/12/02 04:39:59;;;;;;;46.03;14.23;;;;;;;;;;5095694;28;20482;-68
2020/12/02 04:42:27;;;;;;;104.47;20.63;;;;;;;;;;5100927;28;20483;-68
2020/12/02 04:44:55;;;;;;;68.43;16.30;;;;;;;;;;5107672;28;20442;-68
2020/12/02 04:47:30;;;;;;;45.20;15.57;;;;;;;;;;5094327;28;20471;-69
2020/12/02 04:49:56;;;;;;;52.40;13.47;;;;;;;;;;5095806;28;20475;-68
2020/12/02 04:52:23;;;;;;;37.27;14.00;;;;;;;;;;5097510;28;20471;-69
2020/12/02 04:54:50;;;;;;;50.90;14.17;;;;;;;;;;5097843;28;20451;-67
2020/12/02 04:57:17;;;;;;;75.37;16.47;;;;;;;;;;5104686;28;20462;-68
2020/12/02 04:59:44;;;;;;;45.67;15.10;;;;;;;;;;5093896;28;20467;-69
2020/12/02 05:02:22;;;;;;;61.37;18.70;;;;;;;;;;5095840;28;20488;-69
2020/12/02 05:04:54;;;;;;;52.13;16.13;;;;;;;;;;5090513;28;20486;-69
2020/12/02 05:07:20;;;;;;;56.03;15.03;;;;;;;;;;5087755;28;20786;-69
2020/12/02 05:09:55;;;;;;;67.13;16.37;;;;;;;;;;5092042;28;20475;-69
2020/12/02 05:12:23;;;;;;;56.53;15.00;;;;;;;;;;5100915;28;20435;-68
2020/12/02 05:14:49;;;;;;;35.93;12.57;;;;;;;;;;5092770;28;20444;-69
2020/12/02 05:17:19;;;;;;;46.03;14.60;;;;;;;;;;5096920;28;20463;-69
2020/12/02 05:19:46;;;;;;;50.07;15.20;;;;;;;;;;5091846;28;20466;-69
2020/12/02 05:22:13;;;;;;;44.83;14.50;;;;;;;;;;5095243;28;20494;-69
2020/12/02 05:24:44;;;;;;;37.67;14.17;;;;;;;;;;5091663;28;20456;-69
2020/12/02 05:27:13;;;;;;;55.13;15.40;;;;;;;;;;5103329;28;20442;-68
2020/12/02 05:29:47;;;;;;;39.33;16.73;;;;;;;;;;5095518;28;20470;-69
2020/12/02 05:32:15;;;;;;;64.20;19.10;;;;;;;;;;5099287;28;20455;-69
2020/12/02 05:34:42;;;;;;;31.90;13.60;;;;;;;;;;5102322;28;20450;-68
2020/12/02 05:37:10;;;;;;;42.73;15.63;;;;;;;;;;5100658;28;20448;-68
2020/12/02 05:39:47;;;;;;;28.83;14.60;;;;;;;;;;5098849;28;20464;-69
2020/12/02 05:42:20;;;;;;;28.87;13.80;;;;;;;;;;5094071;28;20490;-69
2020/12/02 05:44:49;;;;;;;25.27;13.40;;;;;;;;;;5099872;28;20451;-68
2020/12/02 05:47:18;;;;;;;25.63;12.23;;;;;;;;;;5094070;28;20467;-69
2020/12/02 05:49:48;;;;;;;35.57;14.40;;;;;;;;;;5100290;28;20816;-68
2020/12/02 05:52:19;;;;;;;37.90;17.10;;;;;;;;;;5106575;28;20810;-69
2020/12/02 05:54:47;;;;;;;28.63;11.87;;;;;;;;;;5103167;28;20446;-68
2020/12/02 05:57:15;;;;;;;34.37;17.23;;;;;;;;;;5100171;28;20463;-67
2020/12/02 05:59:42;;;;;;;32.17;13.60;;;;;;;;;;5105638;28;20458;-67
2020/12/02 06:02:09;;;;;;;25.03;12.63;;;;;;;;;;5105339;28;20479;-67
2020/12/02 06:04:35;;;;;;;26.90;12.80;;;;;;;;;;5108433;28;20947;-67
2020/12/02 06:07:03;;;;;;;22.80;13.07;;;;;;;;;;5109001;28;20458;-67
2020/12/02 06:09:31;;;;;;;31.23;15.17;;;;;;;;;;5110695;28;20482;-67
2020/12/02 06:12:02;;;;;;;29.07;12.50;;;;;;;;;;5100718;28;20451;-67
2020/12/02 06:14:31;;;;;;;25.57;13.40;;;;;;;;;;5108232;28;20458;-67
2020/12/02 06:16:58;;;;;;;28.00;13.30;;;;;;;;;;5109524;28;20537;-66
2020/12/02 06:21:53;;;;;;;32.47;15.00;;;;;;;;;;5041213;28;20985;-72
2020/12/02 06:24:39;;;;;;;33.83;14.10;;;;;;;;;;5039374;28;20451;-71
2020/12/02 06:27:32;;;;;;;30.47;13.33;;;;;;;;;;5043397;28;20437;-72
2020/12/02 06:30:01;;;;;;;30.33;14.33;;;;;;;;;;5037939;28;20467;-71
2020/12/02 06:32:28;;;;;;;34.20;14.97;;;;;;;;;;5024847;28;20458;-71
2020/12/02 06:35:12;;;;;;;30.90;14.10;;;;;;;;;;5032665;28;20445;-72
2020/12/02 06:37:39;;;;;;;29.90;12.43;;;;;;;;;;5043319;28;20454;-71
2020/12/02 06:40:07;;;;;;;24.43;12.10;;;;;;;;;;5040933;28;20477;-71
2020/12/02 06:42:34;;;;;;;30.97;12.47;;;;;;;;;;5047834;28;20512;-71
2020/12/02 06:45:12;;;;;;;27.53;12.07;;;;;;;;;;5048564;28;20450;-71
2020/12/02 06:47:55;;;;;;;31.70;13.83;;;;;;;;;;5028222;28;20465;-71
2020/12/02 06:50:23;;;;;;;43.00;14.97;;;;;;;;;;5034752;28;20470;-71
2020/12/02 06:52:50;;;;;;;37.43;15.13;;;;;;;;;;5028889;28;21039;-71
2020/12/02 06:55:20;;;;;;;49.80;18.47;;;;;;;;;;5034496;28;20453;-71
2020/12/02 06:57:47;;;;;;;46.30;13.97;;;;;;;;;;5035824;28;20442;-71
2020/12/02 07:00:19;;;;;;;44.37;16.67;;;;;;;;;;5038838;28;20469;-71
2020/12/02 07:02:47;;;;;;;38.30;13.90;;;;;;;;;;5032122;28;20486;-71
2020/12/02 07:05:19;;;;;;;76.30;23.03;;;;;;;;;;5034635;28;20443;-71
2020/12/02 07:07:46;;;;;;;150.63;25.77;;;;;;;;;;5041478;28;20446;-71
2020/12/02 07:10:22;;;;;;;86.47;22.23;;;;;;;;;;5038253;28;20554;-71
2020/12/02 07:12:53;;;;;;;98.87;26.47;;;;;;;;;;5033563;28;20457;-71
2020/12/02 07:15:20;;;;;;;87.00;23.30;;;;;;;;;;5029415;28;20443;-71
2020/12/02 07:17:47;;;;;;;104.53;30.27;;;;;;;;;;5025532;28;20463;-71
2020/12/02 07:20:15;;;;;;;136.17;31.17;;;;;;;;;;5034362;28;20475;-71
2020/12/02 07:22:47;;;;;;;125.03;33.57;;;;;;;;;;5029234;28;20490;-71
2020/12/02 07:25:13;;;;;;;128.87;32.50;;;;;;;;;;5028040;28;20443;-71
2020/12/02 07:27:42;;;;;;;106.37;31.97;;;;;;;;;;5031320;28;20591;-71
2020/12/02 07:30:16;;;;;;;116.47;33.20;;;;;;;;;;5038818;28;20554;-71
2020/12/02 07:32:43;;;;;;;83.27;30.60;;;;;;;;;;5030454;28;20463;-71
2020/12/02 07:35:14;;;;;;;113.43;31.97;;;;;;;;;;5031248;28;20458;-71
2020/12/02 07:37:42;;;;;;;104.90;34.47;;;;;;;;;;5030686;28;20457;-70
2020/12/02 07:40:25;;;;;;;83.97;32.17;;;;;;;;;;5036080;28;20619;-71
2020/12/02 07:42:53;;;;;;;114.27;32.43;;;;;;;;;;5040292;28;20482;-71
2020/12/02 07:45:23;;;;;;;81.87;25.87;;;;;;;;;;5047068;28;20460;-71
2020/12/02 07:47:51;;;;;;;113.20;33.23;;;;;;;;;;5023586;28;20539;-71
2020/12/02 07:50:23;;;;;;;145.90;36.90;;;;;;;;;;5028770;28;20475;-71
2020/12/02 07:52:54;;;;;;;89.33;34.30;;;;;;;;;;5030052;28;20443;-70
2020/12/02 07:55:23;;;;;;;176.03;41.93;;;;;;;;;;5022942;28;20464;-70
2020/12/02 07:57:50;;;;;;;112.03;33.37;;;;;;;;;;5037824;28;20454;-71
2020/12/02 08:00:24;;;;;;;146.40;37.67;;;;;;;;;;5033629;28;20471;-70
2020/12/02 08:02:51;;;;;;;97.17;31.73;;;;;;;;;;5033769;28;20565;-71
2020/12/02 08:05:25;;;;;;;73.57;26.50;;;;;;;;;;5032350;28;20447;-69
2020/12/02 08:08:00;;;;;;;91.67;30.67;;;;;;;;;;5039955;28;20446;-70
2020/12/02 08:10:29;;;;;;;75.30;28.40;;;;;;;;;;5032181;28;20959;-71
2020/12/02 08:12:56;;;;;;;71.90;29.37;;;;;;;;;;5032555;28;20446;-69
2020/12/02 08:15:23;;;;;;;81.07;30.73;;;;;;;;;;5029649;28;20457;-70
2020/12/02 08:18:03;;;;;;;55.80;26.30;;;;;;;;;;5025665;28;20455;-69
2020/12/02 08:20:32;;;;;;;54.00;24.67;;;;;;;;;;5031946;28;20477;-69
2020/12/02 08:23:00;;;;;;;47.80;21.40;;;;;;;;;;5029049;28;20486;-70
2020/12/02 08:25:31;;;;;;;58.27;26.67;;;;;;;;;;5029444;28;20467;-70
2020/12/02 08:28:00;;;;;;;48.40;24.00;;;;;;;;;;5032061;28;20454;-70
2020/12/02 08:30:28;;;;;;;52.93;25.67;;;;;;;;;;5032657;28;21080;-70
2020/12/02 08:32:58;;;;;;;48.27;23.50;;;;;;;;;;5032278;28;20477;-70
2020/12/02 08:35:27;;;;;;;50.17;22.80;;;;;;;;;;5033929;28;20439;-70
2020/12/02 08:37:55;;;;;;;48.00;21.70;;;;;;;;;;5037496;28;20852;-70
2020/12/02 08:40:38;;;;;;;47.20;23.13;;;;;;;;;;5030931;28;20487;-70
2020/12/02 08:43:32;;;;;;;37.17;19.33;;;;;;;;;;5043815;28;20489;-70
2020/12/02 08:46:09;;;;;;;38.17;19.83;;;;;;;;;;5034047;28;20442;-70
2020/12/02 08:48:36;;;;;;;41.70;21.70;;;;;;;;;;5026649;28;20454;-70
2020/12/02 08:51:03;;;;;;;46.03;20.30;;;;;;;;;;5022319;28;20447;-70
2020/12/02 08:53:31;;;;;;;37.37;18.70;;;;;;;;;;5031796;28;20451;-70
2020/12/02 08:55:58;;;;;;;37.00;21.83;;;;;;;;;;5036982;28;20488;-70
2020/12/02 08:58:24;;;;;;;42.60;20.60;;;;;;;;;;5040352;28;20453;-70
2020/12/02 09:00:51;;;;;;;44.73;22.30;;;;;;;;;;5037307;28;20478;-70
2020/12/02 09:03:19;;;;;;;27.13;14.03;;;;;;;;;;5034320;28;20487;-70
2020/12/02 09:05:46;;;;;;;23.43;12.13;;;;;;;;;;5033106;28;20448;-69
2020/12/02 09:08:13;;;;;;;42.03;16.23;;;;;;;;;;5030715;28;20461;-69
2020/12/02 09:10:39;;;;;;;29.23;14.03;;;;;;;;;;5030821;28;20477;-70
2020/12/02 09:13:06;;;;;;;29.03;12.43;;;;;;;;;;5025732;28;20828;-70
2020/12/02 09:16:08;;;;;;;33.93;15.60;;;;;;;;;;5106690;27;20694;-71
2020/12/02 09:18:34;;;;;;;30.30;15.30;;;;;;;;;;5101986;28;20455;-71
2020/12/02 09:21:01;;;;;;;33.13;16.03;;;;;;;;;;5120132;28;20442;-69
2020/12/02 09:23:27;;;;;;;36.90;16.73;;;;;;;;;;5103312;27;20456;-68
2020/12/02 09:28:25;;;;;;;28.17;16.03;;;;;;;;;;5125933;27;21003;-69
2020/12/02 09:30:52;;;;;;;37.63;19.20;;;;;;;;;;5116810;28;20470;-69
2020/12/02 09:33:18;;;;;;;41.13;17.90;;;;;;;;;;5106575;28;20447;-69
2020/12/02 09:35:45;;;;;;;37.00;13.80;;;;;;;;;;5106307;28;20959;-69
2020/12/02 09:38:11;;;;;;;27.63;14.20;;;;;;;;;;5106211;28;20450;-69
2020/12/02 09:40:38;;;;;;;31.00;16.40;;;;;;;;;;5105426;28;20480;-69
2020/12/02 09:43:13;;;;;;;30.63;16.47;;;;;;;;;;5095751;28;21075;-69
2020/12/02 09:45:47;;;;;;;36.70;20.50;;;;;;;;;;5113582;28;20948;-69
2020/12/02 09:48:15;;;;;;;36.50;15.83;;;;;;;;;;5102078;28;20475;-69
2020/12/02 09:50:42;;;;;;;29.33;14.93;;;;;;;;;;5102798;28;20483;-69
2020/12/02 09:53:15;;;;;;;32.97;15.50;;;;;;;;;;5101600;28;20448;-69
2020/12/02 09:55:42;;;;;;;31.13;15.07;;;;;;;;;;5103261;28;20489;-69
2020/12/02 09:58:10;;;;;;;24.83;13.63;;;;;;;;;;5112104;28;20805;-69
2020/12/02 10:00:36;;;;;;;28.97;15.27;;;;;;;;;;5104685;28;21011;-69
2020/12/02 10:03:20;;;;;;;31.87;16.97;;;;;;;;;;5108341;28;20446;-70
2020/12/02 10:05:58;;;;;;;28.93;13.80;;;;;;;;;;5113523;28;20450;-69
2020/12/02 10:08:31;;;;;;;27.50;14.20;;;;;;;;;;5111428;28;20451;-69
2020/12/02 10:10:59;;;;;;;33.70;15.50;;;;;;;;;;5106044;28;20456;-69
2020/12/02 10:13:36;;;;;;;24.37;14.67;;;;;;;;;;5105060;28;20466;-69
2020/12/02 10:16:07;;;;;;;20.20;12.40;;;;;;;;;;5110375;28;20448;-69
2020/12/02 10:18:45;;;;;;;26.43;14.57;;;;;;;;;;5099374;28;20455;-69
2020/12/02 10:21:14;;;;;;;34.83;17.97;;;;;;;;;;5094253;28;20956;-69
2020/12/02 10:23:54;;;;;;;33.60;17.90;;;;;;;;;;5090550;28;20460;-70
2020/12/02 10:26:38;;;;;;;27.93;16.97;;;;;;;;;;5107667;28;20452;-69
2020/12/02 10:29:11;;;;;;;27.30;15.70;;;;;;;;;;5089874;28;20490;-69
2020/12/02 10:31:43;;;;;;;25.13;13.40;;;;;;;;;;5107751;28;20448;-69
2020/12/02 10:34:15;;;;;;;31.20;17.07;;;;;;;;;;5098460;28;20466;-69
2020/12/02 10:36:44;;;;;;;28.60;14.77;;;;;;;;;;5098747;28;20450;-69
2020/12/02 10:39:12;;;;;;;30.90;15.40;;;;;;;;;;5102038;28;20850;-69
2020/12/02 10:41:45;;;;;;;30.93;15.60;;;;;;;;;;5086434;28;20461;-69
2020/12/02 10:44:18;;;;;;;28.53;15.30;;;;;;;;;;5084804;28;20829;-69
2020/12/02 10:46:53;;;;;;;29.37;15.87;;;;;;;;;;5082665;28;20477;-69
2020/12/02 10:49:25;;;;;;;24.80;13.30;;;;;;;;;;5090848;28;20529;-69
2020/12/02 10:51:52;;;;;;;22.70;13.63;;;;;;;;;;5098836;28;20447;-69
2020/12/02 10:54:19;;;;;;;32.70;14.90;;;;;;;;;;5094754;28;20458;-69
2020/12/02 10:56:47;;;;;;;26.40;12.17;;;;;;;;;;5084391;28;20458;-69
2020/12/02 10:59:14;;;;;;;29.10;14.80;;;;;;;;;;5097672;28;20467;-69
2020/12/02 11:01:42;;;;;;;20.63;12.17;;;;;;;;;;5091182;28;20461;-69
2020/12/02 11:04:09;;;;;;;23.50;11.60;;;;;;;;;;5094633;28;20478;-69
2020/12/02 11:06:44;;;;;;;28.07;14.07;;;;;;;;;;5091705;28;20480;-69
2020/12/02 11:09:17;;;;;;;27.13;13.43;;;;;;;;;;5100500;28;20479;-69
2020/12/02 11:11:55;;;;;;;29.73;14.93;;;;;;;;;;5091166;28;20515;-69
2020/12/02 11:14:28;;;;;;;33.67;14.50;;;;;;;;;;5087003;28;20444;-68
2020/12/02 11:16:59;;;;;;;22.37;12.93;;;;;;;;;;5080795;28;20449;-69
2020/12/02 11:19:46;;;;;;;24.73;12.70;;;;;;;;;;5090589;28;20468;-69
2020/12/02 11:22:26;;;;;;;23.37;12.70;;;;;;;;;;5081853;28;20502;-69
2020/12/02 11:25:03;;;;;;;27.20;13.60;;;;;;;;;;5083785;28;20351;-69
2020/12/02 11:27:29;;;;;;;28.67;14.63;;;;;;;;;;5082968;28;20222;-69
2020/12/02 11:29:57;;;;;;;32.50;15.40;;;;;;;;;;5086861;28;20470;-69
2020/12/02 11:32:58;;;;;;;28.30;16.67;;;;;;;;;;5077455;28;20461;-69
2020/12/02 11:35:53;;;;;;;26.57;15.00;;;;;;;;;;5079739;28;20456;-69
2020/12/02 11:38:23;;;;;;;28.60;14.53;;;;;;;;;;5056572;28;20518;-70
2020/12/02 11:41:00;;;;;;;27.70;13.70;;;;;;;;;;5081981;28;20464;-69
2020/12/02 11:43:31;;;;;;;25.47;12.90;;;;;;;;;;5078785;28;20586;-69
2020/12/02 11:45:59;;;;;;;25.80;14.13;;;;;;;;;;5083906;28;20444;-69
2020/12/02 11:48:28;;;;;;;28.17;13.47;;;;;;;;;;5093352;28;21007;-69
2020/12/02 11:51:03;;;;;;;35.00;12.83;;;;;;;;;;5089690;28;20437;-69
2020/12/02 11:53:43;;;;;;;24.23;11.40;;;;;;;;;;5076208;28;20475;-70
2020/12/02 11:56:10;;;;;;;24.87;12.77;;;;;;;;;;5069899;28;20456;-70
2020/12/02 11:58:37;;;;;;;23.40;10.20;;;;;;;;;;5079676;28;20440;-70
2020/12/02 12:01:08;;;;;;;31.73;13.33;;;;;;;;;;5081541;28;20449;-70
2020/12/02 12:03:41;;;;;;;34.10;12.73;;;;;;;;;;5075815;28;20453;-69
2020/12/02 12:06:08;;;;;;;32.90;14.10;;;;;;;;;;5073419;28;20814;-70
2020/12/02 12:08:40;;;;;;;28.27;14.23;;;;;;;;;;5085485;28;20483;-68
2020/12/02 12:11:12;;;;;;;35.20;15.57;;;;;;;;;;5075298;28;20444;-70
2020/12/02 12:13:41;;;;;;;32.50;14.07;;;;;;;;;;5080485;28;20963;-69
2020/12/02 12:16:12;;;;;;;28.23;14.10;;;;;;;;;;5080518;28;20467;-70
2020/12/02 12:18:43;;;;;;;36.73;14.50;;;;;;;;;;5070112;28;20441;-69
2020/12/02 12:21:16;;;;;;;33.87;15.97;;;;;;;;;;5078466;28;20444;-70
2020/12/02 12:23:53;;;;;;;27.90;13.07;;;;;;;;;;5081051;28;20964;-70
2020/12/02 12:26:21;;;;;;;30.87;14.33;;;;;;;;;;5081356;28;20478;-70
2020/12/02 12:28:48;;;;;;;32.07;15.00;;;;;;;;;;5082768;28;20984;-69
2020/12/02 12:31:17;;;;;;;37.33;17.07;;;;;;;;;;5092706;28;20947;-70
2020/12/02 12:33:47;;;;;;;45.73;21.73;;;;;;;;;;5105079;28;20443;-70
2020/12/02 12:36:20;;;;;;;45.20;19.27;;;;;;;;;;5098550;28;20440;-70
2020/12/02 12:38:50;;;;;;;37.47;18.10;;;;;;;;;;5086851;28;20440;-70
2020/12/02 12:41:21;;;;;;;38.50;17.97;;;;;;;;;;5100287;28;20471;-70
2020/12/02 12:43:51;;;;;;;45.10;18.90;;;;;;;;;;5097436;28;20444;-70
2020/12/02 12:46:21;;;;;;;46.87;17.70;;;;;;;;;;5092516;28;20530;-70
2020/12/02 12:48:48;;;;;;;38.37;17.10;;;;;;;;;;5086277;28;20447;-70
2020/12/02 12:51:16;;;;;;;43.40;19.23;;;;;;;;;;5086421;28;20447;-70
2020/12/02 12:53:43;;;;;;;38.63;16.80;;;;;;;;;;5085517;28;20448;-70
2020/12/02 13:04:35;;;;;;;35.20;15.67;;;;;;;;;;5106215;27;20619;-71
2020/12/02 13:07:06;;;;;;;37.80;17.07;;;;;;;;;;5088695;28;20448;-69
2020/12/02 13:09:39;;;;;;;35.57;17.90;;;;;;;;;;5078857;28;21016;-69
2020/12/02 13:12:09;;;;;;;41.70;20.50;;;;;;;;;;5075424;28;20465;-69
2020/12/02 13:14:41;;;;;;;41.33;15.87;;;;;;;;;;5096550;28;20439;-69
2020/12/02 13:17:23;;;;;;;50.87;19.80;;;;;;;;;;5085798;28;20461;-69
2020/12/02 13:19:54;;;;;;;32.83;15.70;;;;;;;;;;5087944;28;20475;-69
2020/12/02 13:22:26;;;;;;;42.90;19.10;;;;;;;;;;5090486;28;20448;-69
2020/12/02 13:24:55;;;;;;;29.80;16.13;;;;;;;;;;5079308;28;20465;-69
